Time;durP1;ratioP1;P1;durP2;ratioP2;P2;SDS_P1;SDS_P2;PMS_P1;PMS_P2;Temp;Humidity;BMP_temperature;BMP_pressure;BME280_temperature;BME280_humidity;BME280_pressure;Samples;Min_cycle;Max_cycle;Signal;HPM_P1;HPM_P2
2022/06/23 00:01:41;;;;;;;2.83;2.50;;;;;;;13.88;100.00;100410.13;5051653;28;20206;-72
2022/06/23 00:04:12;;;;;;;3.00;2.60;;;;;;;13.85;100.00;100415.53;5069094;28;20220;-73
2022/06/23 00:06:44;;;;;;;2.97;2.60;;;;;;;13.80;100.00;100421.81;5067645;28;20236;-72
2022/06/23 00:09:28;;;;;;;2.83;2.63;;;;;;;13.78;100.00;100423.66;5070199;28;20229;-72
2022/06/23 00:11:56;;;;;;;2.80;2.50;;;;;;;13.81;100.00;100423.53;5051659;28;20205;-72
2022/06/23 00:14:24;;;;;;;2.70;2.50;;;;;;;13.66;100.00;100429.41;5065090;28;20386;-72
2022/06/23 00:16:50;;;;;;;2.90;2.70;;;;;;;13.75;100.00;100433.41;5065653;28;20194;-72
2022/06/23 00:19:17;;;;;;;3.87;3.03;;;;;;;13.69;100.00;100429.28;5069887;28;20206;-72
2022/06/23 00:21:46;;;;;;;3.03;2.77;;;;;;;13.70;100.00;100431.00;5080238;28;20565;-72
2022/06/23 00:24:18;;;;;;;4.73;3.20;;;;;;;13.70;100.00;100435.38;5069191;28;20245;-72
2022/06/23 00:26:45;;;;;;;3.27;2.97;;;;;;;13.72;100.00;100438.78;5051561;28;21064;-72
2022/06/23 00:29:16;;;;;;;3.03;2.73;;;;;;;13.64;100.00;100439.09;5069581;28;20207;-72
2022/06/23 00:31:45;;;;;;;2.93;2.70;;;;;;;13.63;100.00;100438.25;5069230;28;20205;-72
2022/06/23 00:34:17;;;;;;;4.17;2.80;;;;;;;13.52;100.00;100443.06;5069439;28;20706;-72
2022/06/23 00:36:49;;;;;;;3.60;2.87;;;;;;;13.54;100.00;100450.88;5069397;28;20250;-72
2022/06/23 00:39:22;;;;;;;3.23;2.93;;;;;;;13.40;100.00;100454.94;5066198;28;20689;-72
2022/06/23 00:41:50;;;;;;;3.10;2.73;;;;;;;13.30;100.00;100453.56;5062212;28;20257;-72
2022/06/23 00:44:24;;;;;;;3.57;3.00;;;;;;;13.39;100.00;100455.81;5067289;28;20620;-72
2022/06/23 00:46:55;;;;;;;3.10;2.90;;;;;;;13.31;100.00;100451.78;5066292;28;20216;-73
2022/06/23 00:49:28;;;;;;;2.90;2.70;;;;;;;13.24;100.00;100459.03;5073138;28;20219;-72
2022/06/23 00:52:00;;;;;;;3.63;2.63;;;;;;;13.15;100.00;100456.78;5073556;28;20198;-72
2022/06/23 00:54:31;;;;;;;4.40;3.13;;;;;;;13.29;100.00;100449.22;5072949;28;20583;-72
2022/06/23 00:57:17;;;;;;;3.50;3.10;;;;;;;13.37;100.00;100457.66;5060692;28;20191;-72
2022/06/23 00:59:51;;;;;;;5.03;3.47;;;;;;;13.12;100.00;100462.13;5072720;28;20198;-72
2022/06/23 01:02:22;;;;;;;3.63;3.33;;;;;;;13.16;100.00;100463.72;5072899;28;20550;-73
2022/06/23 01:04:54;;;;;;;3.13;2.83;;;;;;;13.14;100.00;100471.63;5073256;28;20572;-72
2022/06/23 01:07:37;;;;;;;3.43;3.13;;;;;;;13.16;100.00;100480.28;5071741;28;20226;-72
2022/06/23 01:10:12;;;;;;;3.93;3.30;;;;;;;13.07;100.00;100480.66;5068692;28;20190;-72
2022/06/23 01:12:45;;;;;;;4.97;3.33;;;;;;;13.19;100.00;100482.78;5072613;28;20203;-72
2022/06/23 01:15:24;;;;;;;3.40;3.10;;;;;;;13.11;100.00;100491.84;5072826;28;20776;-72
2022/06/23 01:17:55;;;;;;;3.70;3.40;;;;;;;13.07;100.00;100489.34;5073048;28;20201;-72
2022/06/23 01:20:31;;;;;;;3.07;2.87;;;;;;;13.03;100.00;100490.38;5071849;28;20570;-72
2022/06/23 01:23:10;;;;;;;3.63;3.20;;;;;;;13.02;100.00;100490.44;5072502;28;20531;-72
2022/06/23 01:25:56;;;;;;;4.47;3.87;;;;;;;13.03;100.00;100493.00;5069069;28;20229;-72
2022/06/23 01:32:28;;;;;;;3.57;3.27;;;;;;;12.91;100.00;100500.44;5070486;28;20307;-72
2022/06/23 01:35:00;;;;;;;3.40;3.10;;;;;;;12.89;100.00;100495.25;5070036;28;20218;-72
2022/06/23 01:37:36;;;;;;;3.87;3.17;;;;;;;12.90;100.00;100499.59;5072406;28;20202;-72
2022/06/23 01:40:11;;;;;;;3.93;3.53;;;;;;;12.87;100.00;100504.94;5072521;28;20194;-72
2022/06/23 01:42:44;;;;;;;3.37;3.07;;;;;;;12.91;100.00;100505.69;5066560;28;20572;-72
2022/06/23 01:45:18;;;;;;;3.90;3.13;;;;;;;12.80;100.00;100511.31;5071904;28;20272;-72
2022/06/23 01:47:51;;;;;;;5.10;3.20;;;;;;;12.75;100.00;100511.50;5068608;28;20206;-72
2022/06/23 01:50:31;;;;;;;4.87;3.47;;;;;;;12.73;100.00;100512.44;5070163;28;20222;-72
2022/06/23 01:53:24;;;;;;;3.80;3.37;;;;;;;12.82;100.00;100512.97;5069131;28;20558;-72
2022/06/23 01:56:06;;;;;;;5.60;3.10;;;;;;;12.81;100.00;100513.03;5065453;28;20292;-72
2022/06/23 01:58:47;;;;;;;3.50;3.20;;;;;;;12.82;100.00;100517.34;5064526;28;20205;-75
2022/06/23 02:01:18;;;;;;;3.77;3.10;;;;;;;12.76;100.00;100514.97;5070104;28;20275;-75
2022/06/23 02:03:51;;;;;;;3.37;3.00;;;;;;;12.72;100.00;100515.97;5053893;28;20836;-75
2022/06/23 02:06:27;;;;;;;4.13;3.10;;;;;;;12.68;100.00;100530.91;5070531;28;20230;-75
2022/06/23 02:08:59;;;;;;;4.50;3.43;;;;;;;12.63;100.00;100528.50;5072347;28;20244;-75
2022/06/23 02:11:33;;;;;;;3.67;3.13;;;;;;;12.66;100.00;100527.50;5071720;28;20199;-75
2022/06/23 02:14:07;;;;;;;3.30;3.00;;;;;;;12.55;100.00;100521.81;5070472;28;20253;-75
2022/06/23 02:16:40;;;;;;;3.57;3.27;;;;;;;12.50;100.00;100519.38;5071422;28;20205;-75
2022/06/23 02:19:18;;;;;;;5.17;3.80;;;;;;;12.56;100.00;100516.53;5071645;28;20198;-75
2022/06/23 02:21:50;;;;;;;5.10;3.90;;;;;;;12.50;100.00;100527.22;5070740;28;20191;-75
2022/06/23 02:24:22;;;;;;;3.67;3.33;;;;;;;12.50;100.00;100528.09;5063161;28;20625;-75
2022/06/23 02:27:03;;;;;;;4.43;3.53;;;;;;;12.43;100.00;100529.19;5070304;28;20230;-75
2022/06/23 02:29:36;;;;;;;4.97;4.00;;;;;;;12.51;100.00;100528.94;5076162;28;20207;-75
2022/06/23 02:32:07;;;;;;;3.63;3.33;;;;;;;12.53;100.00;100524.50;5070870;28;20203;-75
2022/06/23 02:34:41;;;;;;;4.03;3.60;;;;;;;12.43;100.00;100533.56;5067282;28;20218;-75
2022/06/23 02:37:46;;;;;;;3.70;3.00;;;;;;;12.55;100.00;100532.28;5067757;28;20202;-75
2022/06/23 02:40:18;;;;;;;4.47;3.50;;;;;;;12.53;100.00;100534.94;5075870;28;20202;-75
2022/06/23 02:42:48;;;;;;;3.97;3.57;;;;;;;12.61;100.00;100538.16;5071371;28;20198;-76
2022/06/23 02:45:29;;;;;;;4.47;3.50;;;;;;;12.55;100.00;100532.28;5061048;28;20225;-75
2022/06/23 02:48:14;;;;;;;4.30;3.90;;;;;;;12.62;100.00;100539.00;5070415;28;20195;-74
2022/06/23 02:50:58;;;;;;;4.33;3.93;;;;;;;12.52;100.00;100543.69;5064253;28;20202;-75
2022/06/23 02:53:44;;;;;;;4.23;3.73;;;;;;;12.50;100.00;100546.38;5070321;28;20206;-75
2022/06/23 02:56:41;;;;;;;4.47;4.03;;;;;;;12.54;100.00;100544.53;5066619;28;20192;-75
2022/06/23 02:59:11;;;;;;;3.63;3.33;;;;;;;12.40;100.00;100539.78;5051423;28;20198;-75
2022/06/23 03:01:45;;;;;;;3.90;3.50;;;;;;;12.43;100.00;100544.03;5070689;28;20194;-75
2022/06/23 03:04:16;;;;;;;5.67;3.70;;;;;;;12.30;100.00;100551.44;5070405;28;20231;-75
2022/06/23 03:06:48;;;;;;;7.30;3.90;;;;;;;12.43;100.00;100557.09;5070798;28;20219;-75
2022/06/23 03:09:21;;;;;;;4.30;3.90;;;;;;;12.30;100.00;100554.91;5066568;28;20240;-75
2022/06/23 03:11:53;;;;;;;4.30;3.90;;;;;;;12.22;100.00;100548.25;5065005;28;20312;-75
2022/06/23 03:14:31;;;;;;;3.77;3.47;;;;;;;12.31;100.00;100551.41;5069798;28;20301;-75
2022/06/23 03:17:03;;;;;;;5.87;4.10;;;;;;;12.43;100.00;100549.25;5062025;28;20551;-75
2022/06/23 03:19:36;;;;;;;4.10;3.70;;;;;;;12.45;100.00;100561.38;5070275;28;20207;-75
2022/06/23 03:22:08;;;;;;;4.70;3.73;;;;;;;12.54;100.00;100557.59;5070051;28;20214;-75
2022/06/23 03:24:41;;;;;;;4.00;3.60;;;;;;;12.41;100.00;100561.53;5073536;22;20230;-76
2022/06/23 03:27:17;;;;;;;3.70;3.40;;;;;;;12.45;100.00;100566.63;5058791;28;20234;-76
2022/06/23 03:29:52;;;;;;;4.27;3.87;;;;;;;12.57;100.00;100567.09;5053688;28;20198;-76
2022/06/23 03:32:24;;;;;;;4.87;4.10;;;;;;;12.60;100.00;100572.22;5052051;28;20226;-76
2022/06/23 03:34:57;;;;;;;5.43;4.10;;;;;;;12.78;100.00;100573.31;5043111;28;20587;-76
2022/06/23 03:43:28;;;;;;;6.03;4.17;;;;;;;13.00;100.00;100583.88;5000272;28;20202;-73
2022/06/23 03:45:59;;;;;;;6.57;4.00;;;;;;;13.06;100.00;100581.00;5002015;28;20575;-73
2022/06/23 03:48:31;;;;;;;4.27;3.87;;;;;;;13.15;100.00;100583.25;4994555;28;20233;-73
2022/06/23 03:51:01;;;;;;;4.87;4.23;;;;;;;13.28;100.00;100583.69;4987896;28;20237;-74
2022/06/23 03:53:32;;;;;;;5.40;3.60;;;;;;;13.35;100.00;100587.81;4992860;28;20211;-74
2022/06/23 03:56:03;;;;;;;4.83;4.33;;;;;;;13.46;100.00;100581.31;4988509;28;20233;-73
2022/06/23 03:58:39;;;;;;;5.67;4.20;;;;;;;13.62;100.00;100585.03;4985034;28;20230;-72
2022/06/23 04:01:16;;;;;;;5.00;4.30;;;;;;;13.69;100.00;100591.72;4983437;28;20257;-72
2022/06/23 04:03:47;;;;;;;8.10;4.20;;;;;;;13.72;100.00;100589.00;4992623;28;20336;-72
2022/06/23 04:06:23;;;;;;;6.40;4.33;;;;;;;13.85;100.00;100586.72;4987999;28;20221;-71
2022/06/23 04:08:56;;;;;;;4.33;3.93;;;;;;;13.90;100.00;100594.41;4985022;28;20230;-72
2022/06/23 04:11:44;;;;;;;4.40;4.00;;;;;;;13.97;100.00;100595.88;4980999;28;20550;-73
2022/06/23 04:14:15;;;;;;;5.20;4.57;;;;;;;14.08;100.00;100593.63;4982808;28;20216;-73
2022/06/23 04:16:42;;;;;;;4.90;4.40;;;;;;;14.13;100.00;100591.69;4983116;28;20673;-72
2022/06/23 04:19:15;;;;;;;5.03;4.53;;;;;;;14.10;100.00;100597.03;4978537;28;20234;-73
2022/06/23 04:21:46;;;;;;;5.27;4.37;;;;;;;14.17;100.00;100602.91;4979057;28;20203;-73
2022/06/23 04:24:19;;;;;;;5.37;4.83;;;;;;;14.23;100.00;100607.03;4988789;28;20200;-72
2022/06/23 04:26:50;;;;;;;4.60;4.20;;;;;;;14.39;100.00;100602.88;4983933;28;20216;-72
2022/06/23 04:29:23;;;;;;;5.67;4.67;;;;;;;14.52;100.00;100611.06;4989843;28;20220;-71
2022/06/23 04:31:53;;;;;;;4.60;4.20;;;;;;;14.67;100.00;100622.69;4987481;28;20723;-72
2022/06/23 04:34:23;;;;;;;5.07;4.67;;;;;;;14.83;100.00;100618.50;4990073;28;20197;-72
2022/06/23 04:36:50;;;;;;;6.17;5.07;;;;;;;15.01;100.00;100627.31;4984188;28;20199;-72
2022/06/23 04:39:23;;;;;;;5.30;4.80;;;;;;;15.00;100.00;100625.59;4984964;28;20220;-72
2022/06/23 04:41:59;;;;;;;5.63;4.40;;;;;;;15.02;100.00;100625.53;4982597;28;20577;-71
2022/06/23 04:44:28;;;;;;;7.00;4.37;;;;;;;15.13;100.00;100633.81;4977701;28;20205;-72
2022/06/23 04:46:58;;;;;;;5.20;4.03;;;;;;;15.19;100.00;100633.50;4984321;28;20216;-72
2022/06/23 04:49:29;;;;;;;5.57;4.57;;;;;;;15.37;100.00;100633.59;4986000;28;20559;-71
2022/06/23 04:51:59;;;;;;;5.40;4.90;;;;;;;15.50;100.00;100640.84;4981629;28;20205;-72
2022/06/23 04:54:30;;;;;;;5.60;5.07;;;;;;;15.56;100.00;100639.69;4991631;28;20570;-71
2022/06/23 04:57:12;;;;;;;4.23;3.83;;;;;;;15.65;100.00;100644.53;4982499;28;20204;-72
2022/06/23 04:59:43;;;;;;;7.00;4.77;;;;;;;15.68;100.00;100644.38;4989640;28;20227;-72
2022/06/23 05:02:20;;;;;;;6.03;4.53;;;;;;;15.80;100.00;100647.41;4979460;28;20224;-71
2022/06/23 05:04:55;;;;;;;5.93;4.30;;;;;;;15.96;100.00;100648.38;4979976;28;20209;-72
2022/06/23 05:07:26;;;;;;;4.83;4.37;;;;;;;16.04;99.94;100663.75;4979578;28;20314;-74
2022/06/23 05:09:56;;;;;;;4.63;4.00;;;;;;;16.15;100.00;100661.47;4984173;28;20228;-72
2022/06/23 05:12:29;;;;;;;4.63;4.23;;;;;;;16.28;99.43;100662.56;4985224;28;20201;-72
2022/06/23 05:15:00;;;;;;;4.73;4.33;;;;;;;16.32;99.16;100660.63;4988728;28;20200;-71
2022/06/23 05:17:29;;;;;;;4.10;3.70;;;;;;;16.44;96.84;100659.19;4978800;28;20550;-72
2022/06/23 05:19:59;;;;;;;4.97;4.30;;;;;;;16.59;96.13;100670.72;4993787;28;20200;-72
2022/06/23 05:22:31;;;;;;;3.97;3.53;;;;;;;16.70;98.09;100657.03;4990643;28;20207;-72
2022/06/23 05:25:09;;;;;;;4.37;4.03;;;;;;;16.76;97.57;100669.84;4986825;28;20207;-72
2022/06/23 05:27:37;;;;;;;4.67;4.20;;;;;;;16.77;97.48;100672.41;4987847;28;20213;-74
2022/06/23 05:30:25;;;;;;;4.53;4.13;;;;;;;16.73;94.71;100681.41;4991624;28;20208;-72
2022/06/23 05:32:54;;;;;;;5.43;4.30;;;;;;;16.84;95.10;100686.16;4987032;28;20267;-72
2022/06/23 05:35:25;;;;;;;5.30;4.40;;;;;;;16.96;93.60;100688.16;4993518;28;20209;-74
2022/06/23 05:37:56;;;;;;;4.90;4.40;;;;;;;16.99;94.19;100690.63;4988984;28;20228;-74
2022/06/23 05:40:29;;;;;;;5.83;4.90;;;;;;;17.07;92.23;100686.75;4990363;28;20202;-74
2022/06/23 05:43:00;;;;;;;5.07;4.10;;;;;;;17.17;92.20;100687.97;4986090;28;20193;-74
2022/06/23 05:45:29;;;;;;;5.80;4.43;;;;;;;17.26;91.30;100689.28;4989820;28;20197;-73
2022/06/23 05:47:58;;;;;;;5.73;4.53;;;;;;;17.39;93.15;100682.41;4989328;28;20718;-74
2022/06/23 05:50:30;;;;;;;5.20;4.70;;;;;;;17.47;91.19;100688.13;4977043;28;20244;-73
2022/06/23 05:53:01;;;;;;;4.60;4.20;;;;;;;17.65;89.37;100693.31;4983094;28;20205;-74
2022/06/23 05:55:34;;;;;;;4.83;4.30;;;;;;;17.72;89.21;100684.97;4979260;28;20681;-73
2022/06/23 05:58:11;;;;;;;5.70;4.63;;;;;;;17.80;89.32;100687.22;4980477;28;20681;-73
2022/06/23 06:00:46;;;;;;;8.23;5.20;;;;;;;17.88;88.61;100685.00;4984667;28;20196;-73
2022/06/23 06:03:19;;;;;;;5.63;4.40;;;;;;;17.98;89.03;100690.63;4978155;28;20209;-74
2022/06/23 06:05:48;;;;;;;5.50;5.00;;;;;;;18.01;87.20;100695.75;4987655;28;20300;-74
2022/06/23 06:08:20;;;;;;;5.23;4.43;;;;;;;18.05;86.08;100696.44;4985382;28;20228;-74
2022/06/23 06:10:47;;;;;;;6.60;4.27;;;;;;;18.19;86.21;100693.84;4985449;28;20204;-74
2022/06/23 06:13:19;;;;;;;6.00;4.50;;;;;;;18.44;85.54;100701.22;4985670;28;20197;-72
2022/06/23 06:15:49;;;;;;;5.20;3.93;;;;;;;18.65;83.40;100704.38;4990394;28;20347;-74
2022/06/23 06:18:21;;;;;;;5.00;4.50;;;;;;;18.63;81.09;100711.56;4984192;28;20249;-74
2022/06/23 06:20:48;;;;;;;4.53;4.13;;;;;;;18.69;82.04;100719.09;4989193;28;20201;-73
2022/06/23 06:23:21;;;;;;;5.40;4.27;;;;;;;18.81;80.76;100721.97;4990810;28;20572;-73
2022/06/23 06:25:50;;;;;;;5.30;4.33;;;;;;;18.96;80.10;100715.81;4985923;28;20297;-74
2022/06/23 06:28:21;;;;;;;7.97;4.40;;;;;;;19.09;81.43;100719.41;4987403;28;20439;-74
2022/06/23 06:30:55;;;;;;;5.17;3.93;;;;;;;19.24;81.22;100732.63;4987894;28;20212;-74
2022/06/23 06:33:33;;;;;;;4.27;3.87;;;;;;;19.37;82.78;100725.66;4983569;28;20196;-73
2022/06/23 06:35:59;;;;;;;4.97;4.03;;;;;;;19.48;78.18;100725.00;4993286;28;20208;-72
2022/06/23 06:38:28;;;;;;;5.07;3.90;;;;;;;19.59;77.94;100732.25;4986786;28;20225;-73
2022/06/23 06:40:58;;;;;;;4.77;4.27;;;;;;;19.62;77.75;100732.06;4990535;28;20215;-74
2022/06/23 06:43:32;;;;;;;4.37;3.97;;;;;;;19.78;76.02;100729.34;4984358;28;20544;-72
2022/06/23 06:45:59;;;;;;;4.73;4.20;;;;;;;19.89;74.55;100733.97;4981544;28;20212;-73
2022/06/23 06:48:31;;;;;;;4.63;3.70;;;;;;;20.02;71.01;100745.47;4981693;28;20225;-72
2022/06/23 06:51:01;;;;;;;4.73;3.90;;;;;;;20.16;70.93;100734.84;4979783;28;20196;-72
2022/06/23 06:53:34;;;;;;;8.43;4.33;;;;;;;20.36;72.58;100730.88;4986874;28;20600;-73
2022/06/23 06:56:08;;;;;;;4.17;3.73;;;;;;;20.53;69.92;100745.69;4985843;28;20197;-73
2022/06/23 06:58:42;;;;;;;4.50;4.10;;;;;;;20.63;69.86;100745.94;4986259;28;20589;-73
2022/06/23 07:01:15;;;;;;;4.67;3.87;;;;;;;20.79;67.20;100740.47;4984732;28;20212;-73
2022/06/23 07:03:45;;;;;;;4.17;3.77;;;;;;;20.80;66.47;100734.22;4981062;28;20209;-72
2022/06/23 07:06:16;;;;;;;5.40;3.93;;;;;;;20.91;66.63;100734.31;4986731;28;20215;-73
2022/06/23 07:08:48;;;;;;;4.10;3.53;;;;;;;21.13;68.46;100727.59;4988727;28;20282;-72
2022/06/23 07:11:22;;;;;;;5.43;3.47;;;;;;;21.34;64.45;100743.81;4986384;28;20577;-73
2022/06/23 07:13:56;;;;;;;3.80;3.37;;;;;;;21.60;62.23;100749.97;4984944;28;20207;-73
2022/06/23 07:16:29;;;;;;;4.90;3.67;;;;;;;21.72;61.61;100745.59;4983858;28;20205;-73
2022/06/23 07:18:59;;;;;;;5.30;3.80;;;;;;;21.78;61.24;100750.47;4983867;28;20217;-73
2022/06/23 07:21:33;;;;;;;3.83;3.30;;;;;;;21.92;62.05;100754.78;4979059;28;20710;-72
2022/06/23 07:24:05;;;;;;;5.47;3.83;;;;;;;22.10;60.07;100756.09;4984005;28;20201;-72
2022/06/23 07:26:41;;;;;;;5.17;3.87;;;;;;;22.26;59.13;100761.13;4985872;28;20640;-73
2022/06/23 07:29:18;;;;;;;8.13;3.50;;;;;;;22.35;58.93;100764.13;4988005;28;20220;-73
2022/06/23 07:31:57;;;;;;;3.97;3.40;;;;;;;22.39;58.82;100757.63;4987353;28;20205;-73
2022/06/23 07:34:26;;;;;;;6.57;3.73;;;;;;;22.48;58.66;100760.44;4988317;28;20216;-73
2022/06/23 07:36:56;;;;;;;3.50;3.20;;;;;;;22.63;57.09;100770.91;4991462;28;20214;-73
2022/06/23 07:39:27;;;;;;;3.80;3.50;;;;;;;22.69;57.82;100765.13;4987496;28;20248;-72
2022/06/23 07:41:59;;;;;;;5.47;3.57;;;;;;;22.83;56.96;100770.25;4985480;28;20227;-73
2022/06/23 07:44:34;;;;;;;6.07;3.27;;;;;;;23.01;55.33;100761.84;4986241;28;20193;-72
2022/06/23 07:47:02;;;;;;;3.23;2.97;;;;;;;23.29;54.54;100779.22;4982941;28;20212;-73
2022/06/23 07:49:30;;;;;;;3.53;2.67;;;;;;;23.41;55.42;100767.63;4982713;28;20476;-72
2022/06/23 07:51:57;;;;;;;3.90;3.17;;;;;;;23.44;55.80;100763.88;4984798;28;20206;-73
2022/06/23 07:54:25;;;;;;;3.47;3.17;;;;;;;23.55;54.99;100765.69;4984122;28;20213;-73
2022/06/23 07:56:52;;;;;;;3.53;3.07;;;;;;;23.64;58.05;100759.66;4985705;28;20636;-73
2022/06/23 07:59:23;;;;;;;3.63;3.33;;;;;;;23.80;56.32;100759.28;4990244;28;20221;-73
2022/06/23 08:01:55;;;;;;;3.33;2.92;;;;;;;23.91;54.25;100753.97;4987877;28;20517;-72
2022/06/23 08:04:28;;;;;;;3.88;3.00;;;;;;;24.10;54.09;100757.81;4987047;28;20684;-73
2022/06/23 08:06:56;;;;;;;3.55;3.05;;;;;;;24.11;53.52;100764.81;4991565;28;20283;-73
2022/06/23 08:09:28;;;;;;;4.57;3.20;;;;;;;24.27;53.45;100757.25;4985327;28;20244;-73
2022/06/23 08:14:48;;;;;;;3.10;2.80;;;;;;;24.44;55.16;100755.03;4978630;28;20319;-72
2022/06/23 08:17:17;;;;;;;3.15;2.65;;;;;;;24.54;51.08;100769.34;4981591;28;20665;-73
2022/06/23 08:19:49;;;;;;;2.83;2.50;;;;;;;24.70;51.29;100774.22;4984092;28;20257;-71
2022/06/23 08:22:20;;;;;;;2.67;2.20;;;;;;;24.76;52.14;100768.38;4985386;28;20209;-72
2022/06/23 08:24:49;;;;;;;2.70;2.50;;;;;;;24.92;49.98;100767.94;4988045;28;20205;-72
2022/06/23 08:27:18;;;;;;;2.65;2.25;;;;;;;25.09;47.49;100766.50;4984297;28;20205;-72
2022/06/23 08:29:49;;;;;;;2.70;2.40;;;;;;;25.21;48.30;100761.94;4982053;28;20225;-72
2022/06/23 08:32:18;;;;;;;4.47;2.55;;;;;;;25.08;47.34;100765.66;4985968;28;20198;-72
2022/06/23 08:34:56;;;;;;;2.53;2.33;;;;;;;24.97;46.86;100771.06;4980727;28;20210;-72
2022/06/23 08:37:24;;;;;;;3.70;2.28;;;;;;;25.06;48.67;100762.25;4985395;28;20201;-72
2022/06/23 08:39:56;;;;;;;3.05;2.40;;;;;;;25.16;45.97;100772.16;4984393;28;20230;-71
2022/06/23 08:42:28;;;;;;;4.55;2.38;;;;;;;25.24;45.55;100765.19;4987514;28;20677;-71
2022/06/23 08:45:04;;;;;;;2.53;2.30;;;;;;;25.45;45.48;100770.53;4989519;28;20876;-72
2022/06/23 08:47:48;;;;;;;1.90;1.80;;;;;;;25.61;43.55;100766.50;4985158;28;20208;-73
2022/06/23 08:50:22;;;;;;;2.65;2.20;;;;;;;25.78;45.60;100757.03;4984731;28;20205;-72
2022/06/23 08:52:55;;;;;;;3.13;1.80;;;;;;;25.86;43.05;100755.38;4983369;28;20212;-72
2022/06/23 08:55:27;;;;;;;2.63;2.10;;;;;;;26.03;44.67;100750.38;4984833;28;22113;-72
2022/06/23 08:57:59;;;;;;;2.50;1.88;;;;;;;26.01;42.63;100749.66;4983953;28;20314;-73
2022/06/23 09:00:33;;;;;;;3.13;1.90;;;;;;;26.14;43.71;100749.41;4985607;28;20216;-72
2022/06/23 09:03:06;;;;;;;2.20;1.77;;;;;;;26.32;40.89;100747.75;4985734;28;20549;-72
2022/06/23 09:05:42;;;;;;;2.60;1.80;;;;;;;26.39;39.18;100745.38;4983445;28;20253;-72
2022/06/23 09:08:15;;;;;;;1.60;1.50;;;;;;;26.51;37.82;100751.41;4984901;28;20229;-72
2022/06/23 09:10:51;;;;;;;2.47;1.70;;;;;;;26.44;39.20;100746.63;4986517;28;20204;-72
2022/06/23 09:13:31;;;;;;;1.95;1.15;;;;;;;26.57;39.32;100743.66;4981962;28;20205;-72
2022/06/23 09:16:08;;;;;;;1.70;1.60;;;;;;;26.76;40.07;100739.34;4984673;28;20204;-71
2022/06/23 09:18:54;;;;;;;2.95;1.73;;;;;;;26.89;39.62;100741.69;4977101;28;20228;-72
2022/06/23 09:21:30;;;;;;;2.47;1.70;;;;;;;26.91;39.14;100734.38;4982475;28;20201;-72
2022/06/23 09:24:25;;;;;;;1.70;1.50;;;;;;;26.91;37.38;100740.59;4989086;28;20268;-71
2022/06/23 09:26:57;;;;;;;1.45;1.35;;;;;;;26.99;34.91;100734.50;4985090;28;20205;-72
2022/06/23 09:29:38;;;;;;;2.03;1.80;;;;;;;27.00;34.98;100737.03;4986723;28;20645;-72
2022/06/23 09:32:11;;;;;;;2.47;1.48;;;;;;;26.90;33.88;100738.06;4986185;28;20201;-72
2022/06/23 09:34:57;;;;;;;2.95;1.50;;;;;;;26.92;34.59;100733.41;4987344;28;20312;-72
2022/06/23 09:37:41;;;;;;;2.40;1.60;;;;;;;27.05;35.94;100723.22;4986017;28;20212;-73
2022/06/23 09:40:26;;;;;;;1.45;1.30;;;;;;;27.12;30.46;100740.41;5058818;22;20287;-73
2022/06/23 09:43:22;;;;;;;1.50;1.33;;;;;;;27.17;30.54;100732.75;5063085;28;20259;-73
2022/06/23 09:46:09;;;;;;;1.40;1.25;;;;;;;27.32;31.76;100730.50;5067178;28;20249;-73
2022/06/23 09:49:07;;;;;;;3.45;1.50;;;;;;;27.56;32.18;100729.97;5042912;28;20253;-73
2022/06/23 09:52:03;;;;;;;1.70;1.45;;;;;;;27.77;33.78;100720.84;5064667;28;20211;-74
2022/06/23 09:54:51;;;;;;;2.05;1.55;;;;;;;27.70;30.91;100717.94;5001715;28;20264;-73
2022/06/23 09:57:37;;;;;;;2.20;1.58;;;;;;;27.74;31.75;100719.31;5062832;28;20194;-73
2022/06/23 10:00:07;;;;;;;1.73;1.63;;;;;;;27.87;34.74;100710.06;5063139;28;20199;-73
2022/06/23 10:02:54;;;;;;;1.92;1.75;;;;;;;27.85;31.23;100712.91;5052824;28;20198;-73
2022/06/23 10:05:41;;;;;;;1.42;1.25;;;;;;;27.89;31.11;100711.59;5061441;28;20207;-73
2022/06/23 10:08:23;;;;;;;2.17;1.50;;;;;;;27.92;33.61;100703.28;5035587;28;20218;-73
2022/06/23 10:11:13;;;;;;;1.55;1.45;;;;;;;28.04;30.39;100705.75;5036199;28;20697;-72
2022/06/23 10:13:51;;;;;;;2.35;1.30;;;;;;;27.98;28.57;100714.41;5037247;28;20369;-73
2022/06/23 10:16:40;;;;;;;1.63;1.50;;;;;;;28.00;31.49;100709.72;5063770;28;20210;-72
2022/06/23 10:19:28;;;;;;;4.53;1.50;;;;;;;28.24;29.37;100714.50;5068827;28;20571;-73
2022/06/23 10:22:10;;;;;;;1.63;1.45;;;;;;;28.07;29.27;100711.66;5068823;28;20195;-73
2022/06/23 10:25:00;;;;;;;1.90;1.40;;;;;;;28.14;30.12;100701.16;5041183;28;20202;-73
2022/06/23 10:27:43;;;;;;;2.85;1.48;;;;;;;28.33;28.83;100705.53;5057985;28;20199;-73
2022/06/23 10:30:20;;;;;;;1.52;1.42;;;;;;;28.39;28.45;100706.75;5058704;28;20558;-73
2022/06/23 10:33:08;;;;;;;1.75;1.40;;;;;;;28.27;28.61;100709.66;5058690;28;20199;-73
2022/06/23 10:35:49;;;;;;;2.63;1.70;;;;;;;28.11;29.19;100710.34;5061348;28;20214;-73
2022/06/23 10:38:28;;;;;;;1.50;1.40;;;;;;;28.08;28.58;100699.94;5066236;28;20212;-73
2022/06/23 10:41:16;;;;;;;1.35;1.20;;;;;;;28.23;28.38;100697.59;5062915;28;20195;-73
2022/06/23 10:44:10;;;;;;;1.88;1.30;;;;;;;28.32;28.23;100702.00;5060722;28;20659;-73
2022/06/23 10:46:42;;;;;;;2.25;1.50;;;;;;;28.18;27.57;100699.88;5038892;28;20645;-73
2022/06/23 10:49:27;;;;;;;1.45;1.30;;;;;;;28.30;29.92;100693.28;5046533;28;20806;-73
2022/06/23 10:52:27;;;;;;;1.92;1.60;;;;;;;28.29;27.41;100694.28;5069665;28;20250;-73
2022/06/23 10:55:10;;;;;;;1.48;1.38;;;;;;;28.29;27.06;100696.94;5065409;28;20256;-72
2022/06/23 10:57:52;;;;;;;2.20;1.45;;;;;;;28.28;26.94;100689.94;5062648;28;20184;-73
2022/06/23 11:00:23;;;;;;;1.83;1.23;;;;;;;28.36;30.75;100677.59;5048958;28;20210;-73
2022/06/23 11:03:11;;;;;;;1.63;1.52;;;;;;;28.57;31.04;100680.78;5064159;28;20206;-73
2022/06/23 11:05:50;;;;;;;2.20;1.42;;;;;;;28.63;31.26;100682.00;5059596;28;20211;-73
2022/06/23 11:08:32;;;;;;;2.33;1.50;;;;;;;28.76;30.82;100676.22;5040498;28;20590;-73
2022/06/23 11:11:14;;;;;;;1.60;1.50;;;;;;;28.88;29.23;100678.50;5057739;28;20207;-73
2022/06/23 11:13:52;;;;;;;1.60;1.50;;;;;;;28.93;29.00;100682.53;5062342;28;20229;-73
2022/06/23 11:16:39;;;;;;;1.80;1.48;;;;;;;29.05;30.69;100667.84;5044087;28;20351;-73
2022/06/23 11:19:17;;;;;;;2.15;1.13;;;;;;;29.07;29.71;100671.22;5060827;28;20480;-73
2022/06/23 11:22:02;;;;;;;1.40;1.30;;;;;;;29.05;30.77;100671.38;5036869;28;20195;-73
2022/06/23 11:24:40;;;;;;;2.95;1.50;;;;;;;28.85;27.27;100676.13;5063693;28;20194;-73
2022/06/23 11:27:18;;;;;;;1.65;1.35;;;;;;;28.98;29.78;100664.94;5059175;28;20187;-73
2022/06/23 11:30:01;;;;;;;1.95;1.45;;;;;;;29.11;31.64;100664.53;5046829;28;20214;-73
2022/06/23 11:32:39;;;;;;;2.15;1.50;;;;;;;29.24;28.72;100664.13;5057746;28;20200;-74
2022/06/23 11:35:28;;;;;;;1.92;1.58;;;;;;;29.42;28.65;100664.03;5063869;28;20222;-73
2022/06/23 11:38:10;;;;;;;1.63;1.52;;;;;;;29.55;30.18;100660.88;5058232;28;20270;-73
2022/06/23 11:40:54;;;;;;;1.60;1.50;;;;;;;29.65;29.23;100665.09;5063371;28;20269;-74
2022/06/23 11:43:24;;;;;;;2.67;1.58;;;;;;;29.65;28.99;100662.41;5062525;28;20201;-73
2022/06/23 11:46:21;;;;;;;1.58;1.38;;;;;;;29.71;28.18;100668.13;5057426;28;20226;-73
2022/06/23 11:49:10;;;;;;;1.75;1.55;;;;;;;29.54;26.47;100656.50;5058576;28;20211;-73
2022/06/23 11:51:51;;;;;;;2.03;1.70;;;;;;;29.47;26.37;100655.50;5039912;28;20614;-74
2022/06/23 11:54:34;;;;;;;1.75;1.50;;;;;;;29.38;26.05;100658.13;5053895;28;20694;-73
2022/06/23 11:57:15;;;;;;;1.98;1.42;;;;;;;29.46;26.54;100657.31;5061209;28;20206;-73
2022/06/23 11:59:56;;;;;;;3.00;1.60;;;;;;;29.52;26.07;100666.59;5056245;28;20190;-73
2022/06/23 12:02:24;;;;;;;1.48;1.38;;;;;;;29.54;28.88;100640.41;5064845;28;20198;-73
2022/06/23 12:05:12;;;;;;;1.50;1.40;;;;;;;29.62;26.78;100660.06;5061689;28;20223;-73
2022/06/23 12:08:15;;;;;;;2.70;1.65;;;;;;;29.62;27.92;100648.47;5054344;28;20196;-73
2022/06/23 12:10:41;;;;;;;2.15;1.80;;;;;;;29.59;27.08;100648.81;5050471;28;20233;-73
2022/06/23 12:13:08;;;;;;;1.95;1.70;;;;;;;29.63;26.79;100647.47;5059054;28;20195;-73